Charlevoix, MI

8:33 AM EST on January 31, 2015 (GMT -0500)
1.5 W Ironton | Change Station
CLOSE
Current Station
Personal Weather Station
Location: Charlevoix, MI
Elevation: 750 ft
Nearby Weather Stations

Elev 750 ft 45.26 °N, 85.22 °W | Updated 17 seconds ago

Overcast
Overcast
18.1 °F
Feels Like 12 °F
N
4.0
Wind Variable Wind from SSE
Gusts 7.0 mph

Today
High -- | Low -- °F
--% Chance of Precip.
Yesterday
High -- | Low -- °F
Precip. -- in
8:03 AM 5:46 PM
Waxing Gibbous, 89% visible
Pressure 30.15 in
Visibility 10.0 miles
Clouds Overcast 4200 ft
Windchill 12 °F
Dew Point 15 °F
Humidity 87%
Rainfall 0.00 in
Snow Depth Not available.
UV 0 out of 12
Pollen .10 out of 12
Air Quality Not available.
Flu Activity Not available.
METAR KCVX 311315Z AUTO 17006KT 10SM OVC042 M07/M09 A3015 RMK AO2 T10681089

More Conditions Fewer Conditions

Pressure 30.15 in
Visibility 10.0 miles
Clouds Overcast 4200 ft
Windchill 12 °F
Dew Point 15 °F
Humidity 87%
Rainfall 0.00 in
Snow Depth Not available.
UV 0 out of 12
Pollen .10 out of 12
Air Quality Not available.
Flu Activity Not available.
METAR KCVX 311315Z AUTO 17006KT 10SM OVC042 M07/M09 A3015 RMK AO2 T10681089

More Conditions Fewer Conditions

Nowcast | as of 8:00 am EST on January 31, 2015

At 9 am...cloudy. Chance of flurries. Temperature 22. Southwest winds 8 mph. At 11 am...cloudy. Chance of flurries. Temperature 24. West winds 10 mph. At 1 PM...cloudy. Chance of flurries. Temperature 26. Northwest winds 11 mph. At 3 PM...mostly cloudy. Chance of flurries. Temperature 26. Northwest winds 10 mph.

×

10-Day Weather Forecast

Almanac

Astronomy

Jan. 31, 2015 Rise Set
Actual Time
Civil Twilight
Nautical Twilight
Astronomical Twilight
Moon
Length of Visible Light
Length of Day
Tomorrow will be .
, % of the Moon is Illuminated

Today's Extremes

State Highs State Lows

Community

WunderPhotos

Upload Photos

1,792,046 photos uploaded!

WunderBlogs® & News

Nearby

Air Quality

  Air Quality AQ Index Pollutant
Not available.

Snow Depth

Station Depth Elevation

Earthquake Activity

City Distance Mag. Time & Date
Minimum magnitude displayed is 2.5.

Coastal Water Temperatures

Place Temperature

Nearby Weather Stations